Aparecida do Taboado, Brazil
Current Conditions -  °F | °C
As of 2:00 PM on Monday 20 Oct 2014 (Local Time) from SBAU Reporting Station
Clear Clear  
Wind Chill: 79°   Ceiling: Unl
Heat Index: 82°   Visibility: 6mi
Dew Point: 72°   Wind: 14mph
Humidity: 78%   Direction: 210°SSW
Pressure: 30"   Gusts: NA
Location:  20.09°S, 51.09°W
Report Text: SBAU 201800Z 21012KT CAVOK 26/22 Q1016
Loading
Personal Weather Stations






























Interactive Weather Map
Tropical Storm Tracking
New forecast layout! Learn more

10-Day Weather Forecast

Advertisements
Track Severe Weather on mobile